sensor_id;sensor_type;location;lat;lon;timestamp;P1;durP1;ratioP1;P2;durP2;ratioP2
12214;SDS011;6170;42.206;24.142;2023-08-01T00:01:17;1999.90;;;999.90;;
12214;SDS011;6170;42.206;24.142;2023-08-01T00:03:44;1999.90;;;999.90;;
12214;SDS011;6170;42.206;24.142;2023-08-01T00:06:11;1999.90;;;999.90;;
12214;SDS011;6170;42.206;24.142;2023-08-01T00:08:38;1999.90;;;999.90;;
12214;SDS011;6170;42.206;24.142;2023-08-01T00:11:05;1999.90;;;999.90;;
12214;SDS011;6170;42.206;24.142;2023-08-01T00:13:34;1999.90;;;999.90;;
12214;SDS011;6170;42.206;24.142;2023-08-01T00:16:01;1999.90;;;999.90;;
12214;SDS011;6170;42.206;24.142;2023-08-01T00:18:28;1999.90;;;999.90;;
12214;SDS011;6170;42.206;24.142;2023-08-01T00:20:55;1999.90;;;999.90;;
12214;SDS011;6170;42.206;24.142;2023-08-01T00:23:24;1999.90;;;999.90;;
12214;SDS011;6170;42.206;24.142;2023-08-01T00:25:51;1999.90;;;999.90;;
12214;SDS011;6170;42.206;24.142;2023-08-01T00:28:18;1999.90;;;999.90;;
12214;SDS011;6170;42.206;24.142;2023-08-01T00:30:47;1999.90;;;999.90;;
12214;SDS011;6170;42.206;24.142;2023-08-01T00:33:14;1999.90;;;999.90;;
12214;SDS011;6170;42.206;24.142;2023-08-01T00:35:41;1999.90;;;999.90;;
12214;SDS011;6170;42.206;24.142;2023-08-01T00:38:09;1999.90;;;999.90;;
12214;SDS011;6170;42.206;24.142;2023-08-01T00:40:36;1999.90;;;999.90;;
12214;SDS011;6170;42.206;24.142;2023-08-01T00:43:02;1999.90;;;999.90;;
12214;SDS011;6170;42.206;24.142;2023-08-01T00:45:29;1999.90;;;999.90;;
12214;SDS011;6170;42.206;24.142;2023-08-01T00:47:58;1999.90;;;999.90;;
12214;SDS011;6170;42.206;24.142;2023-08-01T00:50:26;1999.90;;;999.90;;
12214;SDS011;6170;42.206;24.142;2023-08-01T00:52:53;1999.90;;;999.90;;
12214;SDS011;6170;42.206;24.142;2023-08-01T00:55:21;1999.90;;;999.90;;
12214;SDS011;6170;42.206;24.142;2023-08-01T00:57:48;1999.90;;;999.90;;
12214;SDS011;6170;42.206;24.142;2023-08-01T01:00:16;1999.90;;;999.90;;
12214;SDS011;6170;42.206;24.142;2023-08-01T01:02:43;1999.90;;;999.90;;
12214;SDS011;6170;42.206;24.142;2023-08-01T01:05:12;1999.90;;;999.90;;
12214;SDS011;6170;42.206;24.142;2023-08-01T01:07:40;1999.90;;;999.90;;
12214;SDS011;6170;42.206;24.142;2023-08-01T01:10:08;1999.90;;;999.90;;
12214;SDS011;6170;42.206;24.142;2023-08-01T01:12:36;1999.90;;;999.90;;
12214;SDS011;6170;42.206;24.142;2023-08-01T01:15:03;1999.90;;;999.90;;
12214;SDS011;6170;42.206;24.142;2023-08-01T01:17:31;1999.90;;;999.90;;
12214;SDS011;6170;42.206;24.142;2023-08-01T01:19:59;1999.90;;;999.90;;
12214;SDS011;6170;42.206;24.142;2023-08-01T01:22:27;1999.90;;;999.90;;
12214;SDS011;6170;42.206;24.142;2023-08-01T01:24:56;1999.90;;;999.90;;
12214;SDS011;6170;42.206;24.142;2023-08-01T01:27:25;1999.90;;;999.90;;
12214;SDS011;6170;42.206;24.142;2023-08-01T01:29:52;1999.90;;;999.90;;
12214;SDS011;6170;42.206;24.142;2023-08-01T01:32:21;1999.90;;;999.90;;
12214;SDS011;6170;42.206;24.142;2023-08-01T01:34:49;1999.90;;;999.90;;
12214;SDS011;6170;42.206;24.142;2023-08-01T01:37:16;1999.90;;;999.90;;
12214;SDS011;6170;42.206;24.142;2023-08-01T01:39:45;1999.90;;;999.90;;
12214;SDS011;6170;42.206;24.142;2023-08-01T01:42:12;1999.90;;;999.90;;
12214;SDS011;6170;42.206;24.142;2023-08-01T01:44:39;1999.90;;;999.90;;
12214;SDS011;6170;42.206;24.142;2023-08-01T01:47:07;1999.90;;;999.90;;
12214;SDS011;6170;42.206;24.142;2023-08-01T01:49:34;1999.90;;;999.90;;
12214;SDS011;6170;42.206;24.142;2023-08-01T01:52:01;1999.90;;;999.90;;
12214;SDS011;6170;42.206;24.142;2023-08-01T01:54:28;1999.90;;;999.90;;
12214;SDS011;6170;42.206;24.142;2023-08-01T01:56:57;1999.90;;;999.90;;
12214;SDS011;6170;42.206;24.142;2023-08-01T01:59:24;1999.90;;;999.90;;
12214;SDS011;6170;42.206;24.142;2023-08-01T02:01:51;1999.90;;;999.90;;
12214;SDS011;6170;42.206;24.142;2023-08-01T02:04:18;1999.90;;;999.90;;
12214;SDS011;6170;42.206;24.142;2023-08-01T02:06:46;1999.90;;;999.90;;
12214;SDS011;6170;42.206;24.142;2023-08-01T02:09:14;1999.90;;;999.90;;
12214;SDS011;6170;42.206;24.142;2023-08-01T02:11:41;1999.90;;;999.90;;
12214;SDS011;6170;42.206;24.142;2023-08-01T02:14:10;1999.90;;;999.90;;
12214;SDS011;6170;42.206;24.142;2023-08-01T02:16:37;1999.90;;;999.90;;
12214;SDS011;6170;42.206;24.142;2023-08-01T02:19:04;1999.90;;;999.90;;
12214;SDS011;6170;42.206;24.142;2023-08-01T02:21:31;1999.90;;;999.90;;
12214;SDS011;6170;42.206;24.142;2023-08-01T02:23:58;1999.90;;;999.90;;
12214;SDS011;6170;42.206;24.142;2023-08-01T02:26:25;1999.90;;;999.90;;
12214;SDS011;6170;42.206;24.142;2023-08-01T02:28:54;1999.90;;;999.90;;
12214;SDS011;6170;42.206;24.142;2023-08-01T02:31:23;1999.90;;;999.90;;
12214;SDS011;6170;42.206;24.142;2023-08-01T02:33:50;1999.90;;;999.90;;
12214;SDS011;6170;42.206;24.142;2023-08-01T02:36:17;1999.90;;;999.90;;
12214;SDS011;6170;42.206;24.142;2023-08-01T02:38:44;1999.90;;;999.90;;
12214;SDS011;6170;42.206;24.142;2023-08-01T02:41:11;1999.90;;;999.90;;
12214;SDS011;6170;42.206;24.142;2023-08-01T02:43:39;1999.90;;;999.90;;
12214;SDS011;6170;42.206;24.142;2023-08-01T02:46:06;1999.90;;;999.90;;
12214;SDS011;6170;42.206;24.142;2023-08-01T02:48:35;1999.90;;;999.90;;
12214;SDS011;6170;42.206;24.142;2023-08-01T02:51:03;1999.90;;;999.90;;
12214;SDS011;6170;42.206;24.142;2023-08-01T02:53:30;1999.90;;;999.90;;
12214;SDS011;6170;42.206;24.142;2023-08-01T02:55:57;1999.90;;;999.90;;
12214;SDS011;6170;42.206;24.142;2023-08-01T02:58:25;1999.90;;;999.90;;
12214;SDS011;6170;42.206;24.142;2023-08-01T03:00:52;1999.90;;;999.90;;
12214;SDS011;6170;42.206;24.142;2023-08-01T03:03:19;1999.90;;;999.90;;
12214;SDS011;6170;42.206;24.142;2023-08-01T03:05:48;1999.90;;;999.90;;
12214;SDS011;6170;42.206;24.142;2023-08-01T03:08:15;1999.90;;;999.90;;
12214;SDS011;6170;42.206;24.142;2023-08-01T03:10:42;1999.90;;;999.90;;
12214;SDS011;6170;42.206;24.142;2023-08-01T03:13:09;1999.90;;;999.90;;
12214;SDS011;6170;42.206;24.142;2023-08-01T03:15:37;1999.90;;;999.90;;
12214;SDS011;6170;42.206;24.142;2023-08-01T03:18:04;1999.90;;;999.90;;
12214;SDS011;6170;42.206;24.142;2023-08-01T03:20:32;1999.90;;;999.90;;
12214;SDS011;6170;42.206;24.142;2023-08-01T03:23:00;1999.90;;;999.90;;
12214;SDS011;6170;42.206;24.142;2023-08-01T03:25:28;1999.90;;;999.90;;
12214;SDS011;6170;42.206;24.142;2023-08-01T03:27:55;1999.90;;;999.90;;
12214;SDS011;6170;42.206;24.142;2023-08-01T03:30:23;1999.90;;;999.90;;
12214;SDS011;6170;42.206;24.142;2023-08-01T03:32:51;1999.90;;;999.90;;
12214;SDS011;6170;42.206;24.142;2023-08-01T03:35:18;1999.90;;;999.90;;
12214;SDS011;6170;42.206;24.142;2023-08-01T03:37:45;1999.90;;;999.90;;
12214;SDS011;6170;42.206;24.142;2023-08-01T03:40:14;1999.90;;;999.90;;
12214;SDS011;6170;42.206;24.142;2023-08-01T03:42:41;1999.90;;;999.90;;
12214;SDS011;6170;42.206;24.142;2023-08-01T03:45:09;1999.90;;;999.90;;
12214;SDS011;6170;42.206;24.142;2023-08-01T03:47:36;1999.90;;;999.90;;
12214;SDS011;6170;42.206;24.142;2023-08-01T03:50:04;1999.90;;;999.90;;
12214;SDS011;6170;42.206;24.142;2023-08-01T03:52:32;1999.90;;;999.90;;
12214;SDS011;6170;42.206;24.142;2023-08-01T03:54:59;1999.90;;;999.90;;
12214;SDS011;6170;42.206;24.142;2023-08-01T03:57:28;1999.90;;;999.90;;
12214;SDS011;6170;42.206;24.142;2023-08-01T03:59:55;1999.90;;;999.90;;
12214;SDS011;6170;42.206;24.142;2023-08-01T04:02:22;1999.90;;;999.90;;
12214;SDS011;6170;42.206;24.142;2023-08-01T04:04:49;1999.90;;;999.90;;
12214;SDS011;6170;42.206;24.142;2023-08-01T04:07:16;1999.90;;;999.90;;
12214;SDS011;6170;42.206;24.142;2023-08-01T04:09:43;1999.90;;;999.90;;
12214;SDS011;6170;42.206;24.142;2023-08-01T04:12:11;1999.90;;;999.90;;
12214;SDS011;6170;42.206;24.142;2023-08-01T04:14:39;1999.90;;;999.90;;
12214;SDS011;6170;42.206;24.142;2023-08-01T04:17:07;1999.90;;;999.90;;
12214;SDS011;6170;42.206;24.142;2023-08-01T04:19:34;1999.90;;;999.90;;
12214;SDS011;6170;42.206;24.142;2023-08-01T04:22:01;1999.90;;;999.90;;
12214;SDS011;6170;42.206;24.142;2023-08-01T04:24:29;1999.90;;;999.90;;
12214;SDS011;6170;42.206;24.142;2023-08-01T04:26:56;1999.90;;;999.90;;
12214;SDS011;6170;42.206;24.142;2023-08-01T04:29:23;1999.90;;;999.90;;
12214;SDS011;6170;42.206;24.142;2023-08-01T04:31:52;1999.90;;;999.90;;
12214;SDS011;6170;42.206;24.142;2023-08-01T04:34:19;1999.90;;;999.90;;
12214;SDS011;6170;42.206;24.142;2023-08-01T04:36:47;1999.90;;;999.90;;
12214;SDS011;6170;42.206;24.142;2023-08-01T04:39:14;1999.90;;;999.90;;
12214;SDS011;6170;42.206;24.142;2023-08-01T04:41:41;1999.90;;;999.90;;
12214;SDS011;6170;42.206;24.142;2023-08-01T04:44:08;1999.90;;;999.90;;
12214;SDS011;6170;42.206;24.142;2023-08-01T04:46:36;1999.90;;;999.90;;
12214;SDS011;6170;42.206;24.142;2023-08-01T04:49:04;1999.90;;;999.90;;
12214;SDS011;6170;42.206;24.142;2023-08-01T04:51:31;1999.90;;;999.90;;
12214;SDS011;6170;42.206;24.142;2023-08-01T04:53:59;1999.90;;;999.90;;
12214;SDS011;6170;42.206;24.142;2023-08-01T04:56:26;1999.90;;;999.90;;
12214;SDS011;6170;42.206;24.142;2023-08-01T04:58:53;1999.90;;;999.90;;
12214;SDS011;6170;42.206;24.142;2023-08-01T05:01:20;1301.32;;;780.67;;
12214;SDS011;6170;42.206;24.142;2023-08-01T05:03:47;604.58;;;562.90;;
12214;SDS011;6170;42.206;24.142;2023-08-01T05:06:16;599.50;;;557.58;;
12214;SDS011;6170;42.206;24.142;2023-08-01T05:08:43;626.28;;;583.00;;
12214;SDS011;6170;42.206;24.142;2023-08-01T05:11:11;636.78;;;592.35;;
12214;SDS011;6170;42.206;24.142;2023-08-01T05:13:38;599.00;;;557.20;;
12214;SDS011;6170;42.206;24.142;2023-08-01T05:16:05;598.55;;;555.03;;
12214;SDS011;6170;42.206;24.142;2023-08-01T05:18:32;582.08;;;541.03;;
12214;SDS011;6170;42.206;24.142;2023-08-01T05:20:59;571.45;;;531.80;;
12214;SDS011;6170;42.206;24.142;2023-08-01T05:23:28;582.55;;;542.80;;
12214;SDS011;6170;42.206;24.142;2023-08-01T05:25:55;572.83;;;532.95;;
12214;SDS011;6170;42.206;24.142;2023-08-01T05:28:22;586.50;;;545.25;;
12214;SDS011;6170;42.206;24.142;2023-08-01T05:30:49;592.08;;;548.70;;
12214;SDS011;6170;42.206;24.142;2023-08-01T05:33:17;609.13;;;564.65;;
12214;SDS011;6170;42.206;24.142;2023-08-01T05:35:44;623.28;;;575.83;;
12214;SDS011;6170;42.206;24.142;2023-08-01T05:38:11;623.17;;;575.25;;
12214;SDS011;6170;42.206;24.142;2023-08-01T05:40:40;606.13;;;560.42;;
12214;SDS011;6170;42.206;24.142;2023-08-01T05:43:07;612.17;;;567.03;;
12214;SDS011;6170;42.206;24.142;2023-08-01T05:45:34;597.63;;;551.88;;
12214;SDS011;6170;42.206;24.142;2023-08-01T05:48:01;634.38;;;586.30;;
12214;SDS011;6170;42.206;24.142;2023-08-01T05:50:29;618.08;;;571.20;;
12214;SDS011;6170;42.206;24.142;2023-08-01T05:52:56;621.58;;;575.72;;
12214;SDS011;6170;42.206;24.142;2023-08-01T05:55:23;659.00;;;608.03;;
12214;SDS011;6170;42.206;24.142;2023-08-01T05:57:52;640.85;;;592.03;;
12214;SDS011;6170;42.206;24.142;2023-08-01T06:00:19;628.40;;;579.80;;
12214;SDS011;6170;42.206;24.142;2023-08-01T06:02:47;648.47;;;598.97;;
12214;SDS011;6170;42.206;24.142;2023-08-01T06:05:14;678.28;;;628.08;;
12214;SDS011;6170;42.206;24.142;2023-08-01T06:07:42;689.75;;;641.28;;
12214;SDS011;6170;42.206;24.142;2023-08-01T06:10:09;685.42;;;636.33;;
12214;SDS011;6170;42.206;24.142;2023-08-01T06:12:36;672.05;;;623.42;;
12214;SDS011;6170;42.206;24.142;2023-08-01T06:15:05;701.28;;;649.83;;
12214;SDS011;6170;42.206;24.142;2023-08-01T06:17:33;713.65;;;660.47;;
12214;SDS011;6170;42.206;24.142;2023-08-01T06:20:00;672.92;;;623.45;;
12214;SDS011;6170;42.206;24.142;2023-08-01T06:22:29;685.92;;;634.67;;
12214;SDS011;6170;42.206;24.142;2023-08-01T06:24:57;634.10;;;585.47;;
12214;SDS011;6170;42.206;24.142;2023-08-01T06:27:24;672.63;;;620.38;;
12214;SDS011;6170;42.206;24.142;2023-08-01T06:29:51;580.35;;;537.67;;
12214;SDS011;6170;42.206;24.142;2023-08-01T06:32:20;633.00;;;585.10;;
12214;SDS011;6170;42.206;24.142;2023-08-01T06:34:47;685.17;;;632.63;;
12214;SDS011;6170;42.206;24.142;2023-08-01T06:37:14;667.55;;;616.25;;
12214;SDS011;6170;42.206;24.142;2023-08-01T06:39:41;665.78;;;616.15;;
12214;SDS011;6170;42.206;24.142;2023-08-01T06:42:09;670.20;;;619.55;;
12214;SDS011;6170;42.206;24.142;2023-08-01T06:44:36;667.83;;;615.47;;
12214;SDS011;6170;42.206;24.142;2023-08-01T06:47:04;653.72;;;602.65;;
12214;SDS011;6170;42.206;24.142;2023-08-01T06:49:33;636.25;;;588.20;;
12214;SDS011;6170;42.206;24.142;2023-08-01T06:52:00;614.40;;;568.17;;
12214;SDS011;6170;42.206;24.142;2023-08-01T06:54:27;628.25;;;580.25;;
12214;SDS011;6170;42.206;24.142;2023-08-01T06:56:54;619.13;;;573.15;;
12214;SDS011;6170;42.206;24.142;2023-08-01T06:59:21;615.05;;;567.00;;
12214;SDS011;6170;42.206;24.142;2023-08-01T07:01:48;608.03;;;561.58;;
12214;SDS011;6170;42.206;24.142;2023-08-01T07:04:16;660.90;;;610.75;;
12214;SDS011;6170;42.206;24.142;2023-08-01T07:06:45;588.92;;;545.15;;
12214;SDS011;6170;42.206;24.142;2023-08-01T07:09:12;627.85;;;580.15;;
12214;SDS011;6170;42.206;24.142;2023-08-01T07:11:40;607.35;;;560.45;;
12214;SDS011;6170;42.206;24.142;2023-08-01T07:14:07;648.90;;;600.10;;
12214;SDS011;6170;42.206;24.142;2023-08-01T07:16:34;636.90;;;587.55;;
12214;SDS011;6170;42.206;24.142;2023-08-01T07:19:01;615.25;;;567.00;;
12214;SDS011;6170;42.206;24.142;2023-08-01T07:21:29;597.65;;;552.45;;
12214;SDS011;6170;42.206;24.142;2023-08-01T07:23:57;622.88;;;574.95;;
12214;SDS011;6170;42.206;24.142;2023-08-01T07:26:24;640.33;;;590.28;;
12214;SDS011;6170;42.206;24.142;2023-08-01T07:28:53;651.85;;;602.97;;
12214;SDS011;6170;42.206;24.142;2023-08-01T07:31:21;614.30;;;569.05;;
12214;SDS011;6170;42.206;24.142;2023-08-01T07:33:48;648.28;;;599.85;;
12214;SDS011;6170;42.206;24.142;2023-08-01T07:36:15;596.45;;;551.08;;
12214;SDS011;6170;42.206;24.142;2023-08-01T07:38:42;620.30;;;572.45;;
12214;SDS011;6170;42.206;24.142;2023-08-01T07:41:11;591.38;;;546.28;;
12214;SDS011;6170;42.206;24.142;2023-08-01T07:43:38;644.42;;;596.10;;
12214;SDS011;6170;42.206;24.142;2023-08-01T07:46:06;706.08;;;652.03;;
12214;SDS011;6170;42.206;24.142;2023-08-01T07:48:35;661.83;;;612.15;;
12214;SDS011;6170;42.206;24.142;2023-08-01T07:51:02;652.47;;;602.67;;
12214;SDS011;6170;42.206;24.142;2023-08-01T07:53:30;651.30;;;602.72;;
12214;SDS011;6170;42.206;24.142;2023-08-01T07:55:58;709.50;;;653.30;;
12214;SDS011;6170;42.206;24.142;2023-08-01T07:58:28;609.55;;;564.97;;
12214;SDS011;6170;42.206;24.142;2023-08-01T08:00:56;694.30;;;641.42;;
12214;SDS011;6170;42.206;24.142;2023-08-01T08:03:23;657.53;;;608.95;;
12214;SDS011;6170;42.206;24.142;2023-08-01T08:05:50;605.80;;;559.22;;
12214;SDS011;6170;42.206;24.142;2023-08-01T08:08:17;619.63;;;573.88;;
12214;SDS011;6170;42.206;24.142;2023-08-01T08:10:44;619.42;;;571.83;;
12214;SDS011;6170;42.206;24.142;2023-08-01T08:13:11;681.60;;;630.33;;
12214;SDS011;6170;42.206;24.142;2023-08-01T08:15:39;638.42;;;591.78;;
12214;SDS011;6170;42.206;24.142;2023-08-01T08:18:06;622.25;;;576.63;;
12214;SDS011;6170;42.206;24.142;2023-08-01T08:20:40;618.10;;;571.95;;
12214;SDS011;6170;42.206;24.142;2023-08-01T08:23:08;636.28;;;590.05;;
12214;SDS011;6170;42.206;24.142;2023-08-01T08:25:35;654.40;;;603.97;;
12214;SDS011;6170;42.206;24.142;2023-08-01T08:28:02;680.28;;;629.72;;
12214;SDS011;6170;42.206;24.142;2023-08-01T08:30:29;660.92;;;609.83;;
12214;SDS011;6170;42.206;24.142;2023-08-01T08:32:58;708.65;;;656.30;;
12214;SDS011;6170;42.206;24.142;2023-08-01T08:35:29;651.15;;;601.35;;
12214;SDS011;6170;42.206;24.142;2023-08-01T08:37:57;608.40;;;563.78;;
12214;SDS011;6170;42.206;24.142;2023-08-01T08:40:25;691.33;;;638.38;;
12214;SDS011;6170;42.206;24.142;2023-08-01T08:42:52;602.38;;;557.25;;
12214;SDS011;6170;42.206;24.142;2023-08-01T08:45:20;664.00;;;613.90;;
12214;SDS011;6170;42.206;24.142;2023-08-01T08:47:49;645.08;;;595.70;;
12214;SDS011;6170;42.206;24.142;2023-08-01T08:50:23;614.72;;;567.40;;
12214;SDS011;6170;42.206;24.142;2023-08-01T08:52:51;682.67;;;631.10;;
12214;SDS011;6170;42.206;24.142;2023-08-01T08:55:19;715.80;;;662.33;;
12214;SDS011;6170;42.206;24.142;2023-08-01T08:57:48;725.75;;;669.42;;
12214;SDS011;6170;42.206;24.142;2023-08-01T09:00:17;753.47;;;692.45;;
12214;SDS011;6170;42.206;24.142;2023-08-01T09:02:45;744.50;;;686.72;;
12214;SDS011;6170;42.206;24.142;2023-08-01T09:05:12;718.58;;;660.70;;
12214;SDS011;6170;42.206;24.142;2023-08-01T09:07:42;706.28;;;652.25;;
12214;SDS011;6170;42.206;24.142;2023-08-01T09:10:10;690.38;;;637.00;;
12214;SDS011;6170;42.206;24.142;2023-08-01T09:12:37;706.40;;;653.72;;
12214;SDS011;6170;42.206;24.142;2023-08-01T09:15:05;696.25;;;643.25;;
12214;SDS011;6170;42.206;24.142;2023-08-01T09:17:33;679.75;;;627.92;;
12214;SDS011;6170;42.206;24.142;2023-08-01T09:20:03;675.75;;;624.30;;
12214;SDS011;6170;42.206;24.142;2023-08-01T09:22:42;656.90;;;604.40;;
12214;SDS011;6170;42.206;24.142;2023-08-01T09:25:09;649.28;;;601.72;;
12214;SDS011;6170;42.206;24.142;2023-08-01T09:27:36;732.38;;;675.92;;
12214;SDS011;6170;42.206;24.142;2023-08-01T09:30:10;682.00;;;630.97;;
12214;SDS011;6170;42.206;24.142;2023-08-01T09:32:50;742.13;;;684.83;;
12214;SDS011;6170;42.206;24.142;2023-08-01T09:35:18;696.67;;;643.45;;
12214;SDS011;6170;42.206;24.142;2023-08-01T09:37:46;691.40;;;638.08;;
12214;SDS011;6170;42.206;24.142;2023-08-01T09:40:14;720.13;;;664.28;;
12214;SDS011;6170;42.206;24.142;2023-08-01T09:42:42;666.53;;;610.65;;
12214;SDS011;6170;42.206;24.142;2023-08-01T09:45:13;678.03;;;622.17;;
12214;SDS011;6170;42.206;24.142;2023-08-01T09:47:41;747.38;;;688.80;;
12214;SDS011;6170;42.206;24.142;2023-08-01T09:50:09;661.15;;;607.20;;
12214;SDS011;6170;42.206;24.142;2023-08-01T09:52:36;717.45;;;662.63;;
12214;SDS011;6170;42.206;24.142;2023-08-01T09:55:05;708.22;;;654.58;;
12214;SDS011;6170;42.206;24.142;2023-08-01T09:57:33;701.47;;;648.78;;
12214;SDS011;6170;42.206;24.142;2023-08-01T10:00:04;718.65;;;664.45;;
12214;SDS011;6170;42.206;24.142;2023-08-01T10:02:34;716.40;;;661.80;;
12214;SDS011;6170;42.206;24.142;2023-08-01T10:05:03;700.10;;;646.28;;
12214;SDS011;6170;42.206;24.142;2023-08-01T10:07:31;684.15;;;628.70;;
12214;SDS011;6170;42.206;24.142;2023-08-01T10:10:00;664.90;;;609.45;;
12214;SDS011;6170;42.206;24.142;2023-08-01T10:12:30;642.63;;;592.20;;
12214;SDS011;6170;42.206;24.142;2023-08-01T10:14:58;652.67;;;599.63;;
12214;SDS011;6170;42.206;24.142;2023-08-01T10:17:26;675.38;;;620.55;;
12214;SDS011;6170;42.206;24.142;2023-08-01T10:19:55;644.30;;;591.30;;
12214;SDS011;6170;42.206;24.142;2023-08-01T10:22:24;627.58;;;579.30;;
12214;SDS011;6170;42.206;24.142;2023-08-01T10:24:51;636.00;;;586.33;;
12214;SDS011;6170;42.206;24.142;2023-08-01T10:27:20;633.10;;;583.72;;
12214;SDS011;6170;42.206;24.142;2023-08-01T10:29:57;627.13;;;577.20;;
12214;SDS011;6170;42.206;24.142;2023-08-01T10:32:29;647.38;;;594.95;;
12214;SDS011;6170;42.206;24.142;2023-08-01T10:34:58;661.92;;;607.70;;
12214;SDS011;6170;42.206;24.142;2023-08-01T10:37:25;627.72;;;578.33;;
12214;SDS011;6170;42.206;24.142;2023-08-01T10:39:56;666.05;;;612.63;;
12214;SDS011;6170;42.206;24.142;2023-08-01T10:42:24;609.90;;;560.33;;
12214;SDS011;6170;42.206;24.142;2023-08-01T10:44:51;618.15;;;570.25;;
12214;SDS011;6170;42.206;24.142;2023-08-01T10:47:26;639.08;;;588.13;;
12214;SDS011;6170;42.206;24.142;2023-08-01T10:49:53;658.42;;;605.22;;
12214;SDS011;6170;42.206;24.142;2023-08-01T10:52:21;652.25;;;599.13;;
12214;SDS011;6170;42.206;24.142;2023-08-01T10:54:56;614.38;;;567.13;;
12214;SDS011;6170;42.206;24.142;2023-08-01T10:57:24;629.47;;;579.80;;
12214;SDS011;6170;42.206;24.142;2023-08-01T10:59:52;624.33;;;573.78;;
12214;SDS011;6170;42.206;24.142;2023-08-01T11:02:22;618.20;;;569.70;;
12214;SDS011;6170;42.206;24.142;2023-08-01T11:04:58;669.13;;;618.03;;
12214;SDS011;6170;42.206;24.142;2023-08-01T11:07:26;637.97;;;587.67;;
12214;SDS011;6170;42.206;24.142;2023-08-01T11:12:39;688.55;;;636.58;;
12214;SDS011;6170;42.206;24.142;2023-08-01T11:15:08;680.70;;;629.22;;
12214;SDS011;6170;42.206;24.142;2023-08-01T11:17:36;668.03;;;615.90;;
12214;SDS011;6170;42.206;24.142;2023-08-01T11:20:06;668.20;;;615.88;;
12214;SDS011;6170;42.206;24.142;2023-08-01T11:22:34;634.67;;;587.85;;
12214;SDS011;6170;42.206;24.142;2023-08-01T11:25:02;664.58;;;613.03;;
12214;SDS011;6170;42.206;24.142;2023-08-01T11:27:29;626.03;;;578.50;;
12214;SDS011;6170;42.206;24.142;2023-08-01T11:29:57;650.63;;;601.53;;
12214;SDS011;6170;42.206;24.142;2023-08-01T11:32:32;645.78;;;592.45;;
12214;SDS011;6170;42.206;24.142;2023-08-01T11:35:00;669.70;;;618.72;;
12214;SDS011;6170;42.206;24.142;2023-08-01T11:37:29;647.13;;;595.22;;
12214;SDS011;6170;42.206;24.142;2023-08-01T11:39:57;652.42;;;601.85;;
12214;SDS011;6170;42.206;24.142;2023-08-01T11:42:24;645.67;;;595.92;;
12214;SDS011;6170;42.206;24.142;2023-08-01T11:44:51;634.47;;;585.78;;
12214;SDS011;6170;42.206;24.142;2023-08-01T11:47:18;643.80;;;593.50;;
12214;SDS011;6170;42.206;24.142;2023-08-01T11:49:46;629.40;;;577.28;;
12214;SDS011;6170;42.206;24.142;2023-08-01T11:52:23;619.92;;;570.38;;
12214;SDS011;6170;42.206;24.142;2023-08-01T11:54:52;655.60;;;603.17;;
12214;SDS011;6170;42.206;24.142;2023-08-01T11:57:20;618.40;;;570.55;;
12214;SDS011;6170;42.206;24.142;2023-08-01T11:59:47;678.45;;;627.17;;
12214;SDS011;6170;42.206;24.142;2023-08-01T12:02:21;675.00;;;623.67;;
12214;SDS011;6170;42.206;24.142;2023-08-01T12:04:49;665.83;;;615.60;;
12214;SDS011;6170;42.206;24.142;2023-08-01T12:07:17;656.75;;;606.97;;
12214;SDS011;6170;42.206;24.142;2023-08-01T12:09:44;661.88;;;613.22;;
12214;SDS011;6170;42.206;24.142;2023-08-01T12:12:23;661.72;;;609.75;;
12214;SDS011;6170;42.206;24.142;2023-08-01T12:14:50;635.42;;;588.05;;
12214;SDS011;6170;42.206;24.142;2023-08-01T12:17:17;631.50;;;581.95;;
12214;SDS011;6170;42.206;24.142;2023-08-01T12:19:45;604.25;;;557.58;;
12214;SDS011;6170;42.206;24.142;2023-08-01T12:22:12;617.67;;;568.70;;
12214;SDS011;6170;42.206;24.142;2023-08-01T12:24:39;638.30;;;589.90;;
12214;SDS011;6170;42.206;24.142;2023-08-01T12:27:08;594.08;;;549.83;;
12214;SDS011;6170;42.206;24.142;2023-08-01T12:29:35;624.33;;;575.65;;
12214;SDS011;6170;42.206;24.142;2023-08-01T12:32:03;621.20;;;576.50;;
12214;SDS011;6170;42.206;24.142;2023-08-01T12:34:32;650.65;;;600.30;;
12214;SDS011;6170;42.206;24.142;2023-08-01T12:36:59;632.85;;;583.13;;
12214;SDS011;6170;42.206;24.142;2023-08-01T12:39:26;614.03;;;567.08;;
12214;SDS011;6170;42.206;24.142;2023-08-01T12:41:53;636.28;;;586.38;;
12214;SDS011;6170;42.206;24.142;2023-08-01T12:44:21;645.15;;;594.15;;
12214;SDS011;6170;42.206;24.142;2023-08-01T12:46:48;640.40;;;592.03;;
12214;SDS011;6170;42.206;24.142;2023-08-01T12:49:15;632.20;;;582.15;;
12214;SDS011;6170;42.206;24.142;2023-08-01T12:51:44;655.67;;;606.65;;
12214;SDS011;6170;42.206;24.142;2023-08-01T12:54:11;609.83;;;564.58;;
12214;SDS011;6170;42.206;24.142;2023-08-01T12:56:38;630.53;;;582.22;;
12214;SDS011;6170;42.206;24.142;2023-08-01T12:59:05;660.03;;;607.95;;
12214;SDS011;6170;42.206;24.142;2023-08-01T13:01:33;650.83;;;601.50;;
12214;SDS011;6170;42.206;24.142;2023-08-01T13:04:03;649.35;;;599.72;;
12214;SDS011;6170;42.206;24.142;2023-08-01T13:06:30;664.70;;;614.40;;
12214;SDS011;6170;42.206;24.142;2023-08-01T13:08:57;644.55;;;596.60;;
12214;SDS011;6170;42.206;24.142;2023-08-01T13:11:25;634.92;;;584.85;;
12214;SDS011;6170;42.206;24.142;2023-08-01T13:13:52;659.13;;;607.45;;
12214;SDS011;6170;42.206;24.142;2023-08-01T13:16:19;631.80;;;582.05;;
12214;SDS011;6170;42.206;24.142;2023-08-01T13:18:47;631.00;;;582.17;;
12214;SDS011;6170;42.206;24.142;2023-08-01T13:21:14;619.22;;;574.03;;
12214;SDS011;6170;42.206;24.142;2023-08-01T13:23:41;631.10;;;584.53;;
12214;SDS011;6170;42.206;24.142;2023-08-01T13:26:08;642.58;;;593.92;;
12214;SDS011;6170;42.206;24.142;2023-08-01T13:28:35;643.30;;;595.58;;
12214;SDS011;6170;42.206;24.142;2023-08-01T13:31:02;639.58;;;588.17;;
12214;SDS011;6170;42.206;24.142;2023-08-01T13:33:29;631.88;;;583.22;;
12214;SDS011;6170;42.206;24.142;2023-08-01T13:35:58;614.42;;;569.05;;
12214;SDS011;6170;42.206;24.142;2023-08-01T13:38:25;627.53;;;579.70;;
12214;SDS011;6170;42.206;24.142;2023-08-01T13:40:51;629.63;;;581.17;;
12214;SDS011;6170;42.206;24.142;2023-08-01T13:43:18;632.03;;;583.50;;
12214;SDS011;6170;42.206;24.142;2023-08-01T13:45:46;661.33;;;609.00;;
12214;SDS011;6170;42.206;24.142;2023-08-01T13:48:13;664.63;;;611.13;;
12214;SDS011;6170;42.206;24.142;2023-08-01T13:50:40;632.95;;;584.92;;
12214;SDS011;6170;42.206;24.142;2023-08-01T13:53:08;638.95;;;591.58;;
12214;SDS011;6170;42.206;24.142;2023-08-01T13:55:37;642.38;;;590.05;;
12214;SDS011;6170;42.206;24.142;2023-08-01T13:58:04;653.53;;;602.53;;